Hollister, Oklahoma
Current Conditions -  °F | °C
As of 7:53 AM on Sunday 25 Jan 2015 (Local Time) from KFDR Reporting Station
Clear Clear  
Wind Chill: 39°   Ceiling: Unl
Heat Index: 47°   Visibility: 10mi
Dew Point: 31°   Wind: 22mph
Humidity: 54%   Direction: 320°NW
Pressure: 30.05"   Gusts: NA
Location:  34.34°N, 98.87°W
Report Text: KFDR 251353Z AUTO 32019KT 10SM CLR 08/M01 A3005 RMK AO2 PK WND 33027/1309 SLP173 T00831006
Loading
Personal Weather Stations






























Interactive Weather Map New forecast layout! Learn more

10-Day Weather Forecast

Advertisements
Track Severe Weather on mobile